Terminal Aerodrome Forecast
Issued by NWS Cleveland, OH

Home | Current Version | Previous Version | Graphics & Text | Print | Product List | Glossary On
Versions: 1 2 3 4 5 6 7 8 9 10 11 12 13 14 15 16 17 18
000
FTUS41 KCLE 241100
TAFERI
TAF
KERI 241140Z 2412/2512 16015G25KT P6SM SCT008 OVC015
      TEMPO 2412/2416 OVC008
     FM250100 19020G30KT 4SM -SHRA OVC018
     FM250400 21025G45KT P6SM OVC025
     FM251000 24025G40KT 3SM -SHSN OVC015=

USA.gov is the U.S. government's official web portal to all federal, state and local government web resources and services.